createdAt,value
2023-02-13T00:01:30.156Z,8.10
2023-02-13T00:04:13.042Z,8.40
2023-02-13T00:06:55.924Z,9.40
2023-02-13T00:09:39.068Z,7.50
2023-02-13T00:12:21.880Z,8.10
2023-02-13T00:15:05.565Z,7.40
2023-02-13T00:17:48.410Z,8.60
2023-02-13T00:20:31.295Z,7.90
2023-02-13T00:23:14.198Z,7.30
2023-02-13T00:25:58.233Z,8.10
2023-02-13T00:28:41.217Z,7.10
2023-02-13T00:31:24.261Z,7.20
2023-02-13T00:34:09.641Z,6.60
2023-02-13T00:36:52.473Z,6.30
2023-02-13T00:39:35.370Z,6.70
2023-02-13T00:42:18.348Z,7.20
2023-02-13T00:45:01.178Z,7.60
2023-02-13T00:47:46.056Z,6.80
2023-02-13T00:50:29.780Z,7.40
2023-02-13T00:53:13.965Z,6.10
2023-02-13T00:55:57.239Z,6.80
2023-02-13T00:58:40.191Z,7.50
2023-02-13T01:01:23.044Z,6.70
2023-02-13T01:04:06.001Z,7.20
2023-02-13T01:09:31.731Z,6.60
2023-02-13T01:12:14.577Z,6.00
2023-02-13T01:14:58.387Z,7.00
2023-02-13T01:17:41.424Z,6.30
2023-02-13T01:20:25.296Z,5.70
2023-02-13T01:23:08.250Z,6.20
2023-02-13T01:25:51.873Z,6.20
2023-02-13T01:28:35.630Z,6.90
2023-02-13T01:31:18.662Z,7.40
2023-02-13T01:34:01.843Z,7.80
2023-02-13T01:36:44.763Z,8.80
2023-02-13T01:39:27.626Z,8.60
2023-02-13T01:42:17.032Z,8.80
2023-02-13T01:45:02.873Z,8.70
2023-02-13T01:47:50.879Z,10.30
2023-02-13T01:50:49.381Z,9.80
2023-02-13T01:53:38.132Z,10.70
2023-02-13T01:56:27.914Z,10.90
2023-02-13T01:59:17.183Z,11.10
2023-02-13T02:02:01.431Z,10.30
2023-02-13T02:04:47.336Z,10.40
2023-02-13T02:07:33.590Z,10.70
2023-02-13T02:10:20.886Z,12.10
2023-02-13T02:13:10.467Z,11.60
2023-02-13T02:15:55.851Z,11.90
2023-02-13T02:18:40.785Z,11.80
2023-02-13T02:21:27.474Z,13.70
2023-02-13T02:24:54.765Z,13.50
2023-02-13T02:28:14.737Z,13.80
2023-02-13T02:31:54.399Z,13.70
2023-02-13T02:35:20.644Z,13.80
2023-02-13T02:38:20.794Z,13.20
2023-02-13T02:41:43.315Z,12.90
2023-02-13T02:47:57.949Z,13.30
2023-02-13T02:50:54.673Z,13.10
2023-02-13T02:54:43.896Z,13.70
2023-02-13T02:57:52.040Z,11.60
2023-02-13T03:01:00.645Z,13.40
2023-02-13T03:04:04.655Z,13.20
2023-02-13T03:07:01.938Z,13.20
2023-02-13T03:10:20.363Z,12.90
2023-02-13T03:13:23.352Z,11.80
2023-02-13T03:19:52.024Z,11.20
2023-02-13T03:22:44.525Z,11.90
2023-02-13T03:25:39.306Z,13.40
2023-02-13T03:28:48.606Z,12.70
2023-02-13T03:31:55.378Z,12.10
2023-02-13T03:35:06.197Z,13.00
2023-02-13T03:37:57.408Z,12.80
2023-02-13T03:41:15.636Z,13.40
2023-02-13T03:44:19.624Z,12.20
2023-02-13T03:47:06.764Z,13.30
2023-02-13T03:50:08.196Z,12.60
2023-02-13T03:53:07.246Z,13.40
2023-02-13T03:56:11.753Z,11.40
2023-02-13T03:59:16.896Z,10.70
2023-02-13T04:02:08.671Z,10.50
2023-02-13T04:05:04.714Z,11.50
2023-02-13T04:07:48.609Z,11.90
2023-02-13T04:10:37.339Z,10.80
2023-02-13T04:13:36.629Z,10.40
2023-02-13T04:16:33.425Z,10.10
2023-02-13T04:19:17.364Z,8.80
2023-02-13T04:22:03.233Z,8.40
2023-02-13T04:24:46.736Z,8.80
2023-02-13T04:27:30.114Z,8.70
2023-02-13T04:30:14.455Z,8.20
2023-02-13T04:32:58.126Z,8.60
2023-02-13T04:35:41.223Z,8.40
2023-02-13T04:38:24.504Z,8.80
2023-02-13T04:41:07.577Z,7.90
2023-02-13T04:43:52.583Z,8.10
2023-02-13T04:46:35.863Z,7.90
2023-02-13T04:49:19.376Z,8.00
2023-02-13T04:52:02.792Z,8.60
2023-02-13T04:54:46.227Z,7.90
2023-02-13T04:57:29.347Z,7.60
2023-02-13T05:00:13.219Z,9.00
2023-02-13T05:03:09.619Z,10.40
2023-02-13T05:05:53.135Z,9.60
2023-02-13T05:08:37.416Z,11.00
2023-02-13T05:11:21.244Z,10.10
2023-02-13T05:14:04.553Z,11.40
2023-02-13T05:16:50.407Z,10.90
2023-02-13T05:19:33.991Z,10.60
2023-02-13T05:22:35.832Z,10.80
2023-02-13T05:25:18.882Z,11.40
2023-02-13T05:28:02.376Z,11.10
2023-02-13T05:30:45.934Z,10.80
2023-02-13T05:33:29.146Z,12.00
2023-02-13T05:36:12.289Z,11.50
2023-02-13T05:38:56.548Z,12.40
2023-02-13T05:41:39.583Z,13.20
2023-02-13T05:44:24.054Z,13.10
2023-02-13T05:47:07.162Z,11.70
2023-02-13T05:49:50.370Z,12.50
2023-02-13T05:52:33.985Z,12.00
2023-02-13T05:55:18.108Z,12.30
2023-02-13T05:58:01.642Z,13.40
2023-02-13T06:00:45.161Z,12.20
2023-02-13T06:03:30.229Z,12.50
2023-02-13T06:06:14.151Z,12.50
2023-02-13T06:08:57.475Z,13.10
2023-02-13T06:11:40.822Z,12.70
2023-02-13T06:14:24.010Z,14.60
2023-02-13T06:17:07.100Z,13.20
2023-02-13T06:19:50.881Z,13.90
2023-02-13T06:22:34.185Z,13.10
2023-02-13T06:25:18.020Z,13.30
2023-02-13T06:28:01.796Z,14.00
2023-02-13T06:30:45.259Z,14.10
2023-02-13T06:33:28.624Z,12.70
2023-02-13T06:36:14.200Z,13.80
2023-02-13T06:38:57.614Z,14.00
2023-02-13T06:41:40.985Z,12.60
2023-02-13T06:44:25.486Z,13.70
2023-02-13T06:47:09.941Z,13.70
2023-02-13T06:49:53.448Z,12.60
2023-02-13T06:52:37.283Z,13.60
2023-02-13T06:55:26.802Z,13.20
2023-02-13T06:58:10.124Z,13.30
2023-02-13T07:00:54.575Z,14.70
2023-02-13T07:03:38.011Z,13.20
2023-02-13T07:06:21.799Z,12.30
2023-02-13T07:09:05.857Z,13.30
2023-02-13T07:11:53.014Z,13.00
2023-02-13T07:14:37.046Z,13.50
2023-02-13T07:17:21.934Z,12.80
2023-02-13T07:20:07.006Z,13.10
2023-02-13T07:22:52.848Z,12.10
2023-02-13T07:25:36.366Z,12.50
2023-02-13T07:28:21.925Z,12.10
2023-02-13T07:31:07.254Z,12.20
2023-02-13T07:33:50.810Z,12.00
2023-02-13T07:36:34.753Z,11.20
2023-02-13T07:39:18.372Z,10.60
2023-02-13T07:42:01.897Z,11.90
2023-02-13T07:44:45.456Z,10.30
2023-02-13T07:47:32.128Z,11.50
2023-02-13T07:50:16.013Z,10.30
2023-02-13T07:53:01.558Z,10.80
2023-02-13T07:55:48.569Z,9.70
2023-02-13T07:58:32.568Z,8.90
2023-02-13T08:01:17.768Z,9.20
2023-02-13T08:04:03.920Z,9.10
2023-02-13T08:06:47.942Z,9.70
2023-02-13T08:09:50.076Z,8.80
2023-02-13T08:12:38.728Z,9.60
2023-02-13T08:15:22.399Z,9.20
2023-02-13T08:18:05.892Z,8.80
2023-02-13T08:20:51.239Z,8.90
2023-02-13T08:23:34.832Z,8.80
2023-02-13T08:26:19.858Z,8.90
2023-02-13T08:29:04.902Z,9.30
2023-02-13T08:31:52.079Z,8.80
2023-02-13T08:34:35.616Z,9.70
2023-02-13T08:37:19.121Z,8.60
2023-02-13T08:40:03.919Z,7.80
2023-02-13T08:42:49.892Z,8.90
2023-02-13T08:45:34.522Z,8.80
2023-02-13T08:48:18.729Z,8.00
2023-02-13T08:51:10.992Z,7.70
2023-02-13T08:53:55.041Z,7.50
2023-02-13T08:56:39.754Z,7.50
2023-02-13T08:59:24.699Z,7.00
2023-02-13T09:02:14.918Z,7.90
2023-02-13T09:04:58.903Z,7.00
2023-02-13T09:07:43.605Z,8.30
2023-02-13T09:10:27.612Z,7.90
2023-02-13T09:13:14.506Z,7.60
2023-02-13T09:16:06.157Z,7.50
2023-02-13T09:18:51.309Z,7.00
2023-02-13T09:21:37.479Z,7.80
2023-02-13T09:24:21.433Z,7.90
2023-02-13T09:27:05.699Z,7.50
2023-02-13T09:29:49.198Z,6.80
2023-02-13T09:32:34.373Z,6.70
2023-02-13T09:35:25.112Z,7.90
2023-02-13T09:38:09.043Z,7.40
2023-02-13T09:41:07.379Z,7.30
2023-02-13T09:44:34.467Z,6.70
2023-02-13T09:47:32.826Z,6.50
2023-02-13T09:50:29.150Z,6.50
2023-02-13T09:53:23.523Z,6.10
2023-02-13T09:56:47.126Z,6.40
2023-02-13T09:59:43.021Z,6.40
2023-02-13T10:02:49.477Z,6.00
2023-02-13T10:06:06.037Z,6.30
2023-02-13T10:09:10.451Z,6.10
2023-02-13T10:12:36.398Z,6.20
2023-02-13T10:15:50.860Z,7.90
2023-02-13T10:18:45.609Z,7.20
2023-02-13T10:21:37.210Z,7.10
2023-02-13T10:24:39.142Z,7.90
2023-02-13T10:27:32.518Z,8.10
2023-02-13T10:30:19.877Z,8.50
2023-02-13T10:33:21.873Z,9.10
2023-02-13T10:36:15.891Z,7.80
2023-02-13T10:39:08.902Z,8.00
2023-02-13T10:42:07.524Z,7.40
2023-02-13T10:45:24.005Z,7.20
2023-02-13T10:48:19.655Z,6.40
2023-02-13T10:51:26.817Z,7.30
2023-02-13T10:54:48.604Z,7.20
2023-02-13T10:57:54.148Z,8.40
2023-02-13T11:00:56.494Z,7.20
2023-02-13T11:03:47.296Z,6.90
2023-02-13T11:06:38.049Z,7.00
2023-02-13T11:09:27.450Z,7.00
2023-02-13T11:12:29.564Z,6.80
2023-02-13T11:15:32.754Z,7.20
2023-02-13T11:18:24.196Z,6.00
2023-02-13T11:21:24.576Z,6.80
2023-02-13T11:24:21.250Z,6.80
2023-02-13T11:27:14.201Z,7.30
2023-02-13T11:30:26.229Z,7.20
2023-02-13T11:33:27.228Z,6.30
2023-02-13T11:36:17.051Z,6.30
2023-02-13T11:39:18.885Z,6.10
2023-02-13T11:42:02.585Z,12.40
2023-02-13T11:44:52.082Z,7.50
2023-02-13T11:47:42.242Z,6.20
2023-02-13T11:50:38.963Z,6.30
2023-02-13T11:53:28.748Z,5.60
2023-02-13T11:56:17.346Z,6.20
2023-02-13T11:59:03.755Z,6.60
2023-02-13T12:01:53.770Z,6.00
2023-02-13T12:04:37.443Z,6.50
2023-02-13T12:07:36.491Z,6.00
2023-02-13T12:10:25.468Z,8.60
2023-02-13T12:13:33.362Z,8.70
2023-02-13T12:16:41.605Z,7.60
2023-02-13T12:19:49.977Z,6.10
2023-02-13T12:23:00.808Z,5.90
2023-02-13T12:25:54.203Z,6.60
2023-02-13T12:28:53.108Z,6.30
2023-02-13T12:31:42.400Z,6.00
2023-02-13T12:34:44.506Z,6.50
2023-02-13T12:38:23.000Z,5.60
2023-02-13T12:41:44.022Z,5.70
2023-02-13T12:45:06.804Z,7.10
2023-02-13T12:48:24.559Z,23.00
2023-02-13T12:51:21.394Z,16.80
2023-02-13T12:54:29.428Z,9.30
2023-02-13T12:57:22.145Z,7.50
2023-02-13T13:00:21.774Z,6.80
2023-02-13T13:03:41.122Z,6.10
2023-02-13T13:06:31.591Z,5.70
2023-02-13T13:09:47.875Z,6.10
2023-02-13T13:12:41.329Z,5.70
2023-02-13T13:15:24.786Z,5.70
2023-02-13T13:18:14.751Z,6.00
2023-02-13T13:21:25.852Z,6.70
2023-02-13T13:24:35.214Z,6.40
2023-02-13T13:27:33.510Z,8.60
2023-02-13T13:30:25.790Z,12.30
2023-02-13T13:33:26.786Z,7.60
2023-02-13T13:36:31.274Z,7.00
2023-02-13T13:39:39.131Z,6.40
2023-02-13T13:42:33.124Z,7.20
2023-02-13T13:45:23.445Z,7.70
2023-02-13T13:48:34.411Z,8.80
2023-02-13T13:51:20.485Z,17.60
2023-02-13T13:54:08.039Z,9.50
2023-02-13T13:57:11.937Z,8.60
2023-02-13T14:00:09.575Z,6.50
2023-02-13T14:03:23.085Z,6.80
2023-02-13T14:06:12.657Z,6.80
2023-02-13T14:09:00.609Z,6.90
2023-02-13T14:11:47.344Z,7.60
2023-02-13T14:14:31.735Z,7.90
2023-02-13T14:17:20.808Z,7.70
2023-02-13T14:20:40.538Z,7.10
2023-02-13T14:23:42.851Z,6.80
2023-02-13T14:26:34.468Z,6.50
2023-02-13T14:29:34.024Z,6.90
2023-02-13T14:32:29.103Z,6.90
2023-02-13T14:35:30.990Z,6.80
2023-02-13T14:38:27.159Z,7.10
2023-02-13T14:41:59.292Z,6.70
2023-02-13T14:44:52.491Z,6.60
2023-02-13T14:47:46.119Z,6.70
2023-02-13T14:50:40.836Z,8.80
2023-02-13T14:53:32.735Z,7.80
2023-02-13T14:56:27.199Z,8.10
2023-02-13T14:59:19.529Z,7.60
2023-02-13T15:02:17.341Z,7.00
2023-02-13T15:05:21.229Z,7.30
2023-02-13T15:08:21.664Z,6.90
2023-02-13T15:11:26.423Z,7.30
2023-02-13T15:14:37.332Z,13.90
2023-02-13T15:17:29.443Z,11.90
2023-02-13T15:20:13.453Z,8.80
2023-02-13T15:22:57.723Z,9.50
2023-02-13T15:25:41.447Z,9.40
2023-02-13T15:28:29.119Z,7.90
2023-02-13T15:31:28.749Z,9.50
2023-02-13T15:34:26.900Z,9.30
2023-02-13T15:37:21.787Z,10.20
2023-02-13T15:40:26.589Z,8.70
2023-02-13T15:43:23.789Z,9.10
2023-02-13T15:46:26.285Z,7.90
2023-02-13T15:49:17.747Z,8.20
2023-02-13T15:52:09.612Z,8.80
2023-02-13T15:54:56.457Z,9.00
2023-02-13T15:57:41.546Z,8.00
2023-02-13T16:00:29.775Z,8.90
2023-02-13T16:03:18.025Z,10.40
2023-02-13T16:06:07.277Z,11.30
2023-02-13T16:09:09.909Z,9.80
2023-02-13T16:12:02.046Z,13.00
2023-02-13T16:15:03.290Z,8.60
2023-02-13T16:17:48.660Z,8.40
2023-02-13T16:20:34.617Z,7.30
2023-02-13T16:23:22.034Z,8.30
2023-02-13T16:26:13.224Z,9.60
2023-02-13T16:28:58.051Z,7.80
2023-02-13T16:31:43.847Z,8.10
2023-02-13T16:34:30.397Z,7.30
2023-02-13T16:37:32.822Z,7.20
2023-02-13T16:40:40.222Z,7.90
2023-02-13T16:43:42.985Z,7.30
2023-02-13T16:46:44.122Z,8.30
2023-02-13T16:49:34.037Z,8.70
2023-02-13T16:52:29.242Z,9.50
2023-02-13T16:55:22.364Z,21.20
2023-02-13T16:58:07.549Z,10.70
2023-02-13T17:00:51.487Z,9.90
2023-02-13T17:03:36.320Z,10.40
2023-02-13T17:06:21.380Z,9.40
2023-02-13T17:09:04.906Z,9.20
2023-02-13T17:11:51.891Z,9.60
2023-02-13T17:14:35.346Z,9.30
2023-02-13T17:17:21.944Z,9.60
2023-02-13T17:20:05.954Z,10.30
2023-02-13T17:22:51.963Z,10.80
2023-02-13T17:25:38.185Z,10.30
2023-02-13T17:28:25.022Z,10.50
2023-02-13T17:31:12.320Z,9.20
2023-02-13T17:33:56.300Z,9.10
2023-02-13T17:36:40.049Z,9.20
2023-02-13T17:39:23.171Z,10.00
2023-02-13T17:42:06.471Z,9.60
2023-02-13T17:44:50.118Z,9.90
2023-02-13T17:47:33.213Z,9.30
2023-02-13T17:50:17.652Z,9.50
2023-02-13T17:53:07.243Z,9.80
2023-02-13T17:55:53.154Z,10.10
2023-02-13T17:58:37.917Z,8.80
2023-02-13T18:01:22.517Z,9.70
2023-02-13T18:04:06.398Z,9.00
2023-02-13T18:06:54.941Z,8.90
2023-02-13T18:09:40.684Z,8.30
2023-02-13T18:12:25.275Z,8.80
2023-02-13T18:15:09.744Z,8.50
2023-02-13T18:17:54.068Z,9.30
2023-02-13T18:20:40.222Z,9.80
2023-02-13T18:23:25.647Z,14.70
2023-02-13T18:26:10.775Z,10.00
2023-02-13T18:28:54.664Z,12.10
2023-02-13T18:31:38.687Z,8.80
2023-02-13T18:34:23.498Z,9.20
2023-02-13T18:37:07.691Z,8.90
2023-02-13T18:39:51.194Z,9.70
2023-02-13T18:42:36.902Z,9.50
2023-02-13T18:45:24.595Z,8.90
2023-02-13T18:48:09.530Z,9.80
2023-02-13T18:50:54.010Z,10.10
2023-02-13T18:53:37.376Z,9.30
2023-02-13T18:56:23.106Z,9.60
2023-02-13T18:59:07.144Z,10.50
2023-02-13T19:01:51.219Z,9.60
2023-02-13T19:04:35.941Z,11.00
2023-02-13T19:07:19.883Z,9.30
2023-02-13T19:10:04.005Z,8.50
2023-02-13T19:12:47.315Z,8.50
2023-02-13T19:15:30.732Z,8.00
2023-02-13T19:18:13.843Z,8.80
2023-02-13T19:21:01.117Z,9.10
2023-02-13T19:23:45.751Z,8.50
2023-02-13T19:26:29.547Z,9.80
2023-02-13T19:29:13.035Z,7.00
2023-02-13T19:31:56.201Z,7.40
2023-02-13T19:34:41.762Z,7.10
2023-02-13T19:37:26.770Z,6.10
2023-02-13T19:40:13.700Z,6.50
2023-02-13T19:42:57.138Z,6.90
2023-02-13T19:45:40.927Z,6.50
2023-02-13T19:48:24.564Z,6.60
2023-02-13T19:51:09.980Z,6.00
2023-02-13T19:54:02.263Z,6.30
2023-02-13T19:56:45.474Z,5.20
2023-02-13T19:59:29.106Z,5.90
2023-02-13T20:02:14.538Z,6.90
2023-02-13T20:04:57.527Z,6.20
2023-02-13T20:07:41.613Z,5.70
2023-02-13T20:10:24.773Z,6.10
2023-02-13T20:13:08.077Z,5.80
2023-02-13T20:15:51.126Z,5.50
2023-02-13T20:18:36.383Z,5.70
2023-02-13T20:21:26.805Z,5.70
2023-02-13T20:24:12.614Z,5.60
2023-02-13T20:26:58.976Z,5.80
2023-02-13T20:29:42.223Z,6.00
2023-02-13T20:32:25.336Z,5.90
2023-02-13T20:35:09.032Z,5.50
2023-02-13T20:37:52.311Z,5.80
2023-02-13T20:40:35.826Z,13.80
2023-02-13T20:43:21.191Z,20.70
2023-02-13T20:46:06.331Z,17.70
2023-02-13T20:48:50.226Z,10.00
2023-02-13T20:51:33.618Z,8.70
2023-02-13T20:54:17.210Z,7.20
2023-02-13T20:57:02.242Z,7.90
2023-02-13T20:59:45.581Z,8.10
2023-02-13T21:02:29.227Z,8.40
2023-02-13T21:05:13.199Z,8.00
2023-02-13T21:07:57.654Z,8.50
2023-02-13T21:10:41.192Z,8.20
2023-02-13T21:13:24.166Z,8.80
2023-02-13T21:16:15.173Z,8.50
2023-02-13T21:19:00.297Z,8.50
2023-02-13T21:21:44.423Z,7.70
2023-02-13T21:24:28.632Z,8.70
2023-02-13T21:27:11.836Z,9.70
2023-02-13T21:29:56.093Z,9.00
2023-02-13T21:32:42.382Z,8.50
2023-02-13T21:35:25.697Z,7.80
2023-02-13T21:38:09.118Z,8.40
2023-02-13T21:40:52.729Z,7.60
2023-02-13T21:43:37.842Z,7.20
2023-02-13T21:46:23.695Z,7.80
2023-02-13T21:49:08.971Z,7.90
2023-02-13T21:51:52.688Z,7.90
2023-02-13T21:54:35.800Z,9.30
2023-02-13T21:57:19.017Z,8.60
2023-02-13T22:00:04.175Z,8.40
2023-02-13T22:03:07.424Z,8.00
2023-02-13T22:05:50.592Z,9.70
2023-02-13T22:08:34.356Z,8.70
2023-02-13T22:11:19.172Z,9.20
2023-02-13T22:14:05.432Z,9.30
2023-02-13T22:16:51.740Z,10.00
2023-02-13T22:19:34.939Z,10.40
2023-02-13T22:22:18.039Z,9.90
2023-02-13T22:25:01.814Z,10.00
2023-02-13T22:27:48.417Z,10.70
2023-02-13T22:30:36.400Z,10.70
2023-02-13T22:33:19.709Z,10.50
2023-02-13T22:36:04.861Z,10.80
2023-02-13T22:38:50.067Z,10.50
2023-02-13T22:41:33.396Z,11.80
2023-02-13T22:44:16.537Z,10.10
2023-02-13T22:47:00.157Z,10.60
2023-02-13T22:49:43.973Z,10.00
2023-02-13T22:52:26.990Z,11.50
2023-02-13T22:55:10.888Z,10.60
2023-02-13T22:57:54.583Z,10.60
2023-02-13T23:00:37.782Z,10.50
2023-02-13T23:03:22.935Z,10.70
2023-02-13T23:06:09.580Z,10.60
2023-02-13T23:08:53.686Z,10.00
2023-02-13T23:11:56.214Z,10.60
2023-02-13T23:14:39.396Z,10.80
2023-02-13T23:17:43.250Z,11.60
2023-02-13T23:20:27.401Z,10.50
2023-02-13T23:23:11.406Z,9.90
2023-02-13T23:25:54.898Z,10.50
2023-02-13T23:28:38.097Z,9.40
2023-02-13T23:31:21.617Z,10.60
2023-02-13T23:34:04.990Z,9.40
2023-02-13T23:36:48.712Z,10.50
2023-02-13T23:39:31.797Z,10.10
2023-02-13T23:42:15.578Z,9.50
2023-02-13T23:44:58.962Z,9.90
2023-02-13T23:47:41.929Z,9.10
2023-02-13T23:50:25.517Z,9.90
2023-02-13T23:53:08.541Z,10.20
2023-02-13T23:55:51.637Z,9.40
2023-02-13T23:58:35.063Z,9.80
